LEGE/GRO METAR and TAF weather

Enter ICAO airport designator
Station Type Date Time Source
LEGE METAR 2019/08/24 06:30 UTC NOAA

LEGE 240630Z 00000KT CAVOK 21/16 Q1019


Station Type Date Time Source
LEGE Decoded METAR 2019/08/24 06:30 UTC NOAA

Station name not available
Aug 24, 2019 - 02:30 AM EDT / 2019.08.24 0630 UTC
Wind: Calm:0
Visibility: greater than 7 mile(s):0
Temperature: 69 F (21 C)
Dew Point: 60 F (16 C)
Relative Humidity: 73%
Pressure (altimeter): 30.09 in. Hg (1019 hPa)
ob: LEGE 240630Z 00000KT CAVOK 21/16 Q1019
cycle: 6

Station Type Date Time Source
LEGE TAF 2019/08/24 06:27 UTC NOAA

TAF LEGE 240500Z 2406/2506 VRB03KT 9999 FEW040 TX32/2413Z TN16/2406Z
BECMG 2407/2409 17012KT
BECMG 2419/2421 18004KT

Example: see airport list